sensor_id;sensor_type;location;lat;lon;timestamp;pressure;altitude;pressure_sealevel;temperature;humidity
40908;BME280;51055;59.436;24.778;2022-12-07T00:01:30;100861.50;;;-2.10;100.00
40908;BME280;51055;59.436;24.778;2022-12-07T00:04:00;100854.50;;;-2.08;100.00
40908;BME280;51055;59.436;24.778;2022-12-07T00:06:34;100861.38;;;-2.05;100.00
40908;BME280;51055;59.436;24.778;2022-12-07T00:09:03;100858.75;;;-2.04;100.00
40908;BME280;51055;59.436;24.778;2022-12-07T00:11:31;100863.06;;;-2.03;100.00
40908;BME280;51055;59.436;24.778;2022-12-07T00:14:02;100856.16;;;-2.04;100.00
40908;BME280;51055;59.436;24.778;2022-12-07T00:16:31;100850.94;;;-2.04;100.00
40908;BME280;51055;59.436;24.778;2022-12-07T00:19:00;100859.53;;;-2.02;100.00
40908;BME280;51055;59.436;24.778;2022-12-07T00:21:31;100850.88;;;-2.01;100.00
40908;BME280;51055;59.436;24.778;2022-12-07T00:24:00;100844.81;;;-2.01;100.00
40908;BME280;51055;59.436;24.778;2022-12-07T00:26:30;100845.66;;;-2.01;100.00
40908;BME280;51055;59.436;24.778;2022-12-07T00:29:00;100851.66;;;-1.99;100.00
40908;BME280;51055;59.436;24.778;2022-12-07T00:31:33;100853.41;;;-1.99;100.00
40908;BME280;51055;59.436;24.778;2022-12-07T00:34:02;100848.19;;;-1.98;100.00
40908;BME280;51055;59.436;24.778;2022-12-07T00:36:30;100847.31;;;-1.97;100.00
40908;BME280;51055;59.436;24.778;2022-12-07T00:38:59;100847.22;;;-1.94;100.00
40908;BME280;51055;59.436;24.778;2022-12-07T00:41:28;100848.19;;;-1.98;100.00
40908;BME280;51055;59.436;24.778;2022-12-07T00:43:56;100836.03;;;-1.97;100.00
40908;BME280;51055;59.436;24.778;2022-12-07T00:46:24;100843.78;;;-1.96;100.00
40908;BME280;51055;59.436;24.778;2022-12-07T00:48:53;100848.09;;;-1.95;100.00
40908;BME280;51055;59.436;24.778;2022-12-07T00:51:23;100840.28;;;-1.93;100.00
40908;BME280;51055;59.436;24.778;2022-12-07T00:53:51;100852.44;;;-1.95;100.00
40908;BME280;51055;59.436;24.778;2022-12-07T00:56:25;100845.50;;;-1.95;100.00
40908;BME280;51055;59.436;24.778;2022-12-07T00:58:54;100848.06;;;-1.93;100.00
40908;BME280;51055;59.436;24.778;2022-12-07T01:01:24;100843.75;;;-1.94;100.00
40908;BME280;51055;59.436;24.778;2022-12-07T01:03:53;100842.81;;;-1.92;100.00
40908;BME280;51055;59.436;24.778;2022-12-07T01:06:23;100838.47;;;-1.91;100.00
40908;BME280;51055;59.436;24.778;2022-12-07T01:08:51;100838.50;;;-1.93;100.00
40908;BME280;51055;59.436;24.778;2022-12-07T01:11:21;100845.31;;;-1.87;100.00
40908;BME280;51055;59.436;24.778;2022-12-07T01:13:53;100841.09;;;-1.93;100.00
40908;BME280;51055;59.436;24.778;2022-12-07T01:16:22;100835.03;;;-1.92;100.00
40908;BME280;51055;59.436;24.778;2022-12-07T01:18:52;100835.91;;;-1.93;100.00
40908;BME280;51055;59.436;24.778;2022-12-07T01:21:22;100830.75;;;-1.94;100.00
40908;BME280;51055;59.436;24.778;2022-12-07T01:23:50;100821.22;;;-1.94;100.00
40908;BME280;51055;59.436;24.778;2022-12-07T01:26:21;100828.16;;;-1.94;100.00
40908;BME280;51055;59.436;24.778;2022-12-07T01:28:49;100822.09;;;-1.93;100.00
40908;BME280;51055;59.436;24.778;2022-12-07T01:31:20;100822.91;;;-1.93;100.00
40908;BME280;51055;59.436;24.778;2022-12-07T01:33:51;100814.19;;;-1.90;100.00
40908;BME280;51055;59.436;24.778;2022-12-07T01:36:20;100822.84;;;-1.90;100.00
40908;BME280;51055;59.436;24.778;2022-12-07T01:38:48;100816.75;;;-1.89;100.00
40908;BME280;51055;59.436;24.778;2022-12-07T01:41:20;100822.88;;;-1.91;100.00
40908;BME280;51055;59.436;24.778;2022-12-07T01:46:34;100816.81;;;-1.92;100.00
40908;BME280;51055;59.436;24.778;2022-12-07T01:49:03;100815.09;;;-1.91;100.00
40908;BME280;51055;59.436;24.778;2022-12-07T01:51:32;100819.44;;;-1.92;100.00
40908;BME280;51055;59.436;24.778;2022-12-07T01:54:01;100809.88;;;-1.91;100.00
40908;BME280;51055;59.436;24.778;2022-12-07T01:56:29;100811.53;;;-1.89;100.00
40908;BME280;51055;59.436;24.778;2022-12-07T01:59:00;100803.72;;;-1.87;100.00
40908;BME280;51055;59.436;24.778;2022-12-07T02:01:28;100807.19;;;-1.88;100.00
40908;BME280;51055;59.436;24.778;2022-12-07T02:03:56;100812.47;;;-1.90;100.00
40908;BME280;51055;59.436;24.778;2022-12-07T02:06:25;100810.66;;;-1.88;100.00
40908;BME280;51055;59.436;24.778;2022-12-07T02:08:53;100811.59;;;-1.90;100.00
40908;BME280;51055;59.436;24.778;2022-12-07T02:11:21;100812.50;;;-1.93;100.00
40908;BME280;51055;59.436;24.778;2022-12-07T02:13:49;100814.19;;;-1.90;100.00
40908;BME280;51055;59.436;24.778;2022-12-07T02:35:39;100795.16;;;-1.91;100.00
40908;BME280;51055;59.436;24.778;2022-12-07T02:41:06;100788.22;;;-1.90;100.00
40908;BME280;51055;59.436;24.778;2022-12-07T02:43:41;100790.75;;;-1.89;100.00
40908;BME280;51055;59.436;24.778;2022-12-07T02:46:17;100793.41;;;-1.90;100.00
40908;BME280;51055;59.436;24.778;2022-12-07T02:48:47;100784.69;;;-1.89;100.00
40908;BME280;51055;59.436;24.778;2022-12-07T02:51:21;100790.81;;;-1.90;100.00
40908;BME280;51055;59.436;24.778;2022-12-07T02:53:49;100785.69;;;-1.93;100.00
40908;BME280;51055;59.436;24.778;2022-12-07T03:05:13;100775.38;;;-1.96;100.00
40908;BME280;51055;59.436;24.778;2022-12-07T03:07:48;100782.25;;;-1.95;100.00
40908;BME280;51055;59.436;24.778;2022-12-07T03:15:36;100781.41;;;-1.96;100.00
40908;BME280;51055;59.436;24.778;2022-12-07T03:18:07;100776.22;;;-1.96;100.00
40908;BME280;51055;59.436;24.778;2022-12-07T03:20:39;100765.81;;;-1.96;100.00
40908;BME280;51055;59.436;24.778;2022-12-07T03:23:09;100768.41;;;-1.96;100.00
40908;BME280;51055;59.436;24.778;2022-12-07T03:25:47;100768.41;;;-1.96;100.00
40908;BME280;51055;59.436;24.778;2022-12-07T03:28:22;100766.63;;;-1.94;100.00
40908;BME280;51055;59.436;24.778;2022-12-07T03:31:10;100756.34;;;-1.97;100.00
40908;BME280;51055;59.436;24.778;2022-12-07T03:33:49;100758.00;;;-1.96;100.00
40908;BME280;51055;59.436;24.778;2022-12-07T03:36:20;100748.53;;;-1.97;100.00
40908;BME280;51055;59.436;24.778;2022-12-07T03:41:36;100762.31;;;-1.95;100.00
40908;BME280;51055;59.436;24.778;2022-12-07T03:44:12;100758.88;;;-1.95;100.00
40908;BME280;51055;59.436;24.778;2022-12-07T03:47:12;100758.06;;;-1.97;100.00
40908;BME280;51055;59.436;24.778;2022-12-07T03:55:00;100765.09;;;-2.01;100.00
40908;BME280;51055;59.436;24.778;2022-12-07T03:57:30;100759.81;;;-1.98;100.00
40908;BME280;51055;59.436;24.778;2022-12-07T04:00:00;100749.50;;;-2.01;100.00
40908;BME280;51055;59.436;24.778;2022-12-07T04:02:29;100731.22;;;-1.98;100.00
40908;BME280;51055;59.436;24.778;2022-12-07T04:04:57;100731.13;;;-1.95;100.00
40908;BME280;51055;59.436;24.778;2022-12-07T04:07:25;100736.25;;;-1.92;100.00
40908;BME280;51055;59.436;24.778;2022-12-07T04:09:52;100718.13;;;-1.95;100.00
40908;BME280;51055;59.436;24.778;2022-12-07T04:12:22;100719.84;;;-1.94;100.00
40908;BME280;51055;59.436;24.778;2022-12-07T04:14:50;100728.59;;;-1.96;100.00
40908;BME280;51055;59.436;24.778;2022-12-07T04:17:18;100726.03;;;-1.98;100.00
40908;BME280;51055;59.436;24.778;2022-12-07T04:19:46;100726.03;;;-1.98;100.00
40908;BME280;51055;59.436;24.778;2022-12-07T04:22:15;100730.34;;;-1.97;100.00
40908;BME280;51055;59.436;24.778;2022-12-07T04:24:43;100745.88;;;-1.95;100.00
40908;BME280;51055;59.436;24.778;2022-12-07T04:27:11;100728.66;;;-1.99;100.00
40908;BME280;51055;59.436;24.778;2022-12-07T04:29:38;100719.03;;;-1.96;100.00
40908;BME280;51055;59.436;24.778;2022-12-07T04:32:06;100726.00;;;-1.96;100.00
40908;BME280;51055;59.436;24.778;2022-12-07T04:34:34;100725.16;;;-1.97;100.00
40908;BME280;51055;59.436;24.778;2022-12-07T04:37:01;100719.88;;;-1.95;100.00
40908;BME280;51055;59.436;24.778;2022-12-07T04:39:31;100713.03;;;-1.98;100.00
40908;BME280;51055;59.436;24.778;2022-12-07T04:42:00;100715.53;;;-1.95;100.00
40908;BME280;51055;59.436;24.778;2022-12-07T04:44:28;100709.38;;;-1.91;100.00
40908;BME280;51055;59.436;24.778;2022-12-07T04:46:56;100703.34;;;-1.93;100.00
40908;BME280;51055;59.436;24.778;2022-12-07T04:49:25;100699.94;;;-1.95;100.00
40908;BME280;51055;59.436;24.778;2022-12-07T04:51:53;100693.88;;;-1.94;100.00
40908;BME280;51055;59.436;24.778;2022-12-07T04:54:20;100700.81;;;-1.94;100.00
40908;BME280;51055;59.436;24.778;2022-12-07T04:56:48;100696.50;;;-1.95;100.00
40908;BME280;51055;59.436;24.778;2022-12-07T04:59:17;100701.66;;;-1.94;100.00
40908;BME280;51055;59.436;24.778;2022-12-07T05:01:45;100708.63;;;-1.96;100.00
40908;BME280;51055;59.436;24.778;2022-12-07T05:04:13;100703.34;;;-1.93;100.00
40908;BME280;51055;59.436;24.778;2022-12-07T05:06:40;100701.66;;;-1.94;100.00
40908;BME280;51055;59.436;24.778;2022-12-07T05:09:08;100699.06;;;-1.94;100.00
40908;BME280;51055;59.436;24.778;2022-12-07T05:11:35;100708.47;;;-1.90;100.00
40908;BME280;51055;59.436;24.778;2022-12-07T05:14:18;100708.63;;;-1.96;100.00
40908;BME280;51055;59.436;24.778;2022-12-07T05:16:48;100710.34;;;-1.95;100.00
40908;BME280;51055;59.436;24.778;2022-12-07T05:19:17;100705.06;;;-1.92;100.00
40908;BME280;51055;59.436;24.778;2022-12-07T05:21:46;100707.88;;;-1.99;100.00
40908;BME280;51055;59.436;24.778;2022-12-07T05:24:14;100712.22;;;-2.00;100.00
40908;BME280;51055;59.436;24.778;2022-12-07T05:26:43;100705.31;;;-2.01;100.00
40908;BME280;51055;59.436;24.778;2022-12-07T05:29:15;100703.59;;;-2.00;100.00
40908;BME280;51055;59.436;24.778;2022-12-07T05:31:44;100706.19;;;-2.00;100.00
40908;BME280;51055;59.436;24.778;2022-12-07T05:34:12;100704.59;;;-2.06;100.00
40908;BME280;51055;59.436;24.778;2022-12-07T05:36:40;100707.19;;;-2.06;100.00
40908;BME280;51055;59.436;24.778;2022-12-07T05:39:08;100702.91;;;-2.07;100.00
40908;BME280;51055;59.436;24.778;2022-12-07T05:41:35;100710.69;;;-2.07;100.00
40908;BME280;51055;59.436;24.778;2022-12-07T05:44:22;100693.47;;;-2.09;100.00
40908;BME280;51055;59.436;24.778;2022-12-07T05:46:50;100696.88;;;-2.09;100.00
40908;BME280;51055;59.436;24.778;2022-12-07T05:49:17;100702.16;;;-2.12;100.00
40908;BME280;51055;59.436;24.778;2022-12-07T05:51:45;100691.75;;;-2.11;100.00
40908;BME280;51055;59.436;24.778;2022-12-07T05:54:13;100692.59;;;-2.10;100.00
40908;BME280;51055;59.436;24.778;2022-12-07T05:56:40;100685.78;;;-2.14;100.00
40908;BME280;51055;59.436;24.778;2022-12-07T05:59:08;100689.34;;;-2.18;100.00
40908;BME280;51055;59.436;24.778;2022-12-07T06:01:56;100688.38;;;-2.14;100.00
40908;BME280;51055;59.436;24.778;2022-12-07T06:04:27;100687.50;;;-2.13;100.00
40908;BME280;51055;59.436;24.778;2022-12-07T06:06:55;100672.78;;;-2.14;100.00
40908;BME280;51055;59.436;24.778;2022-12-07T06:09:24;100675.41;;;-2.16;100.00
40908;BME280;51055;59.436;24.778;2022-12-07T06:11:53;100672.03;;;-2.18;100.00
40908;BME280;51055;59.436;24.778;2022-12-07T06:14:40;100673.63;;;-2.14;100.00
40908;BME280;51055;59.436;24.778;2022-12-07T06:17:08;100673.56;;;-2.11;100.00
40908;BME280;51055;59.436;24.778;2022-12-07T06:19:36;100666.53;;;-2.07;100.00
40908;BME280;51055;59.436;24.778;2022-12-07T06:22:04;100672.78;;;-2.14;100.00
40908;BME280;51055;59.436;24.778;2022-12-07T06:24:32;100675.38;;;-2.14;100.00
40908;BME280;51055;59.436;24.778;2022-12-07T06:27:00;100666.81;;;-2.18;100.00
40908;BME280;51055;59.436;24.778;2022-12-07T06:29:28;100675.56;;;-2.20;100.00
40908;BME280;51055;59.436;24.778;2022-12-07T06:31:56;100668.56;;;-2.18;100.00
40908;BME280;51055;59.436;24.778;2022-12-07T06:34:25;100670.09;;;-2.11;100.00
40908;BME280;51055;59.436;24.778;2022-12-07T06:36:53;100677.88;;;-2.09;100.00
40908;BME280;51055;59.436;24.778;2022-12-07T06:39:24;100676.06;;;-2.07;100.00
40908;BME280;51055;59.436;24.778;2022-12-07T06:41:53;100682.19;;;-2.10;100.00
40908;BME280;51055;59.436;24.778;2022-12-07T06:44:22;100685.59;;;-2.08;100.00
40908;BME280;51055;59.436;24.778;2022-12-07T06:46:50;100679.59;;;-2.10;100.00
40908;BME280;51055;59.436;24.778;2022-12-07T06:49:20;100672.59;;;-2.08;100.00
40908;BME280;51055;59.436;24.778;2022-12-07T06:51:48;100668.53;;;-2.17;100.00
40908;BME280;51055;59.436;24.778;2022-12-07T06:54:16;100672.97;;;-2.20;100.00
40908;BME280;51055;59.436;24.778;2022-12-07T06:56:43;100670.47;;;-2.23;100.00
40908;BME280;51055;59.436;24.778;2022-12-07T06:59:11;100682.50;;;-2.21;100.00
40908;BME280;51055;59.436;24.778;2022-12-07T07:01:39;100688.38;;;-2.14;100.00
40908;BME280;51055;59.436;24.778;2022-12-07T07:04:07;100690.13;;;-2.15;100.00
40908;BME280;51055;59.436;24.778;2022-12-07T07:06:34;100688.28;;;-2.11;100.00
40908;BME280;51055;59.436;24.778;2022-12-07T07:09:02;100687.44;;;-2.12;100.00
40908;BME280;51055;59.436;24.778;2022-12-07T07:11:30;100681.56;;;-2.18;100.00
40908;BME280;51055;59.436;24.778;2022-12-07T07:13:58;100685.81;;;-2.16;100.00
40908;BME280;51055;59.436;24.778;2022-12-07T07:16:30;100686.56;;;-2.12;100.00
40908;BME280;51055;59.436;24.778;2022-12-07T07:18:58;100689.16;;;-2.12;100.00
40908;BME280;51055;59.436;24.778;2022-12-07T07:21:26;100682.22;;;-2.12;100.00
40908;BME280;51055;59.436;24.778;2022-12-07T07:23:53;100686.63;;;-2.14;100.00
40908;BME280;51055;59.436;24.778;2022-12-07T07:26:21;100686.75;;;-2.18;100.00
40908;BME280;51055;59.436;24.778;2022-12-07T07:28:50;100684.13;;;-2.17;100.00
40908;BME280;51055;59.436;24.778;2022-12-07T07:31:18;100685.13;;;-2.22;100.00
40908;BME280;51055;59.436;24.778;2022-12-07T07:33:46;100684.91;;;-2.15;100.00
40908;BME280;51055;59.436;24.778;2022-12-07T07:36:14;100685.91;;;-2.19;100.00
40908;BME280;51055;59.436;24.778;2022-12-07T07:38:42;100679.03;;;-2.21;100.00
40908;BME280;51055;59.436;24.778;2022-12-07T07:41:09;100682.31;;;-2.15;100.00
40908;BME280;51055;59.436;24.778;2022-12-07T07:43:37;100691.06;;;-2.17;100.00
40908;BME280;51055;59.436;24.778;2022-12-07T07:46:05;100690.22;;;-2.19;100.00
40908;BME280;51055;59.436;24.778;2022-12-07T07:48:33;100686.94;;;-2.26;100.00
40908;BME280;51055;59.436;24.778;2022-12-07T07:51:05;100680.00;;;-2.25;100.00
40908;BME280;51055;59.436;24.778;2022-12-07T07:53:33;100675.50;;;-2.19;100.00
40908;BME280;51055;59.436;24.778;2022-12-07T07:56:01;100667.84;;;-2.23;100.00
40908;BME280;51055;59.436;24.778;2022-12-07T07:58:28;100670.19;;;-2.14;100.00
40908;BME280;51055;59.436;24.778;2022-12-07T08:00:56;100668.66;;;-2.21;100.00
40908;BME280;51055;59.436;24.778;2022-12-07T08:03:24;100665.28;;;-2.25;100.00
40908;BME280;51055;59.436;24.778;2022-12-07T08:05:52;100664.34;;;-2.22;100.00
40908;BME280;51055;59.436;24.778;2022-12-07T08:08:20;100665.00;;;-2.14;100.00
40908;BME280;51055;59.436;24.778;2022-12-07T08:10:47;100661.63;;;-2.18;100.00
40908;BME280;51055;59.436;24.778;2022-12-07T08:13:15;100667.03;;;-2.25;100.00
40908;BME280;51055;59.436;24.778;2022-12-07T08:15:45;100666.16;;;-2.24;100.00
40908;BME280;51055;59.436;24.778;2022-12-07T08:18:14;100660.16;;;-2.26;100.00
40908;BME280;51055;59.436;24.778;2022-12-07T08:20:42;100662.56;;;-2.20;100.00
40908;BME280;51055;59.436;24.778;2022-12-07T08:23:10;100656.44;;;-2.18;100.00
40908;BME280;51055;59.436;24.778;2022-12-07T08:25:38;100656.25;;;-2.12;100.00
40908;BME280;51055;59.436;24.778;2022-12-07T08:28:06;100661.59;;;-2.16;100.00
40908;BME280;51055;59.436;24.778;2022-12-07T08:30:34;100651.03;;;-2.10;100.00
40908;BME280;51055;59.436;24.778;2022-12-07T08:33:02;100664.13;;;-2.15;100.00
40908;BME280;51055;59.436;24.778;2022-12-07T08:35:29;100654.91;;;-2.25;100.00
40908;BME280;51055;59.436;24.778;2022-12-07T08:37:57;100652.09;;;-2.17;100.00
40908;BME280;51055;59.436;24.778;2022-12-07T08:40:25;100653.03;;;-2.20;100.00
40908;BME280;51055;59.436;24.778;2022-12-07T08:42:53;100649.53;;;-2.19;100.00
40908;BME280;51055;59.436;24.778;2022-12-07T08:45:21;100646.97;;;-2.20;100.00
40908;BME280;51055;59.436;24.778;2022-12-07T08:48:06;100644.38;;;-2.20;100.00
40908;BME280;51055;59.436;24.778;2022-12-07T08:50:36;100640.28;;;-2.29;100.00
40908;BME280;51055;59.436;24.778;2022-12-07T08:53:05;100638.53;;;-2.28;100.00
40908;BME280;51055;59.436;24.778;2022-12-07T08:55:34;100644.38;;;-2.20;100.00
40908;BME280;51055;59.436;24.778;2022-12-07T08:58:02;100633.84;;;-2.16;100.00
40908;BME280;51055;59.436;24.778;2022-12-07T09:00:30;100634.66;;;-2.14;100.00
40908;BME280;51055;59.436;24.778;2022-12-07T09:02:58;100632.06;;;-2.14;100.00
40908;BME280;51055;59.436;24.778;2022-12-07T09:05:25;100634.69;;;-2.15;100.00
40908;BME280;51055;59.436;24.778;2022-12-07T09:07:56;100629.47;;;-2.14;100.00
40908;BME280;51055;59.436;24.778;2022-12-07T09:10:24;100629.59;;;-2.18;100.00
40908;BME280;51055;59.436;24.778;2022-12-07T09:12:53;100621.72;;;-2.15;100.00
40908;BME280;51055;59.436;24.778;2022-12-07T09:15:21;100623.28;;;-2.09;100.00
40908;BME280;51055;59.436;24.778;2022-12-07T09:17:49;100612.91;;;-2.09;100.00
40908;BME280;51055;59.436;24.778;2022-12-07T09:20:16;100618.81;;;-2.06;100.00
40908;BME280;51055;59.436;24.778;2022-12-07T09:22:46;100605.00;;;-2.06;100.00
40908;BME280;51055;59.436;24.778;2022-12-07T09:25:14;100615.66;;;-2.16;100.00
40908;BME280;51055;59.436;24.778;2022-12-07T09:27:42;100614.94;;;-2.21;100.00
40908;BME280;51055;59.436;24.778;2022-12-07T09:30:10;100610.63;;;-2.20;100.00
40908;BME280;51055;59.436;24.778;2022-12-07T09:32:37;100612.03;;;-2.10;100.00
40908;BME280;51055;59.436;24.778;2022-12-07T09:35:05;100603.59;;;-2.18;100.00
40908;BME280;51055;59.436;24.778;2022-12-07T09:37:33;100599.16;;;-2.13;100.00
40908;BME280;51055;59.436;24.778;2022-12-07T09:40:04;100595.91;;;-2.21;100.00
40908;BME280;51055;59.436;24.778;2022-12-07T09:42:36;100598.28;;;-2.14;100.00
40908;BME280;51055;59.436;24.778;2022-12-07T09:45:05;100597.56;;;-2.19;100.00
40908;BME280;51055;59.436;24.778;2022-12-07T09:47:34;100599.00;;;-2.08;100.00
40908;BME280;51055;59.436;24.778;2022-12-07T09:50:12;100592.13;;;-2.09;100.00
40908;BME280;51055;59.436;24.778;2022-12-07T09:52:42;100594.03;;;-2.16;100.00
40908;BME280;51055;59.436;24.778;2022-12-07T09:55:13;100594.75;;;-2.11;100.00
40908;BME280;51055;59.436;24.778;2022-12-07T09:57:41;100587.94;;;-2.15;100.00
40908;BME280;51055;59.436;24.778;2022-12-07T10:00:13;100587.75;;;-2.09;100.00
40908;BME280;51055;59.436;24.778;2022-12-07T10:02:44;100590.88;;;-1.98;100.00
40908;BME280;51055;59.436;24.778;2022-12-07T10:05:16;100582.44;;;-2.06;100.00
40908;BME280;51055;59.436;24.778;2022-12-07T10:07:51;100588.31;;;-1.99;100.00
40908;BME280;51055;59.436;24.778;2022-12-07T10:10:37;100578.75;;;-1.97;100.00
40908;BME280;51055;59.436;24.778;2022-12-07T10:13:12;100570.09;;;-1.98;100.00
40908;BME280;51055;59.436;24.778;2022-12-07T10:18:39;100566.81;;;-2.04;100.00
40908;BME280;51055;59.436;24.778;2022-12-07T10:23:38;100563.34;;;-2.03;100.00
40908;BME280;51055;59.436;24.778;2022-12-07T10:26:32;100554.63;;;-2.02;100.00
40908;BME280;51055;59.436;24.778;2022-12-07T10:29:24;100545.06;;;-2.00;100.00
40908;BME280;51055;59.436;24.778;2022-12-07T10:31:58;100541.41;;;-1.95;100.00
40908;BME280;51055;59.436;24.778;2022-12-07T10:34:29;100538.00;;;-1.97;100.00
40908;BME280;51055;59.436;24.778;2022-12-07T10:37:15;100538.94;;;-1.99;100.00
40908;BME280;51055;59.436;24.778;2022-12-07T10:44:45;100526.78;;;-1.99;100.00
40908;BME280;51055;59.436;24.778;2022-12-07T10:47:42;100516.31;;;-1.96;100.00
40908;BME280;51055;59.436;24.778;2022-12-07T10:58:37;100505.22;;;-2.01;100.00
40908;BME280;51055;59.436;24.778;2022-12-07T11:15:21;100488.53;;;-1.94;100.00
40908;BME280;51055;59.436;24.778;2022-12-07T11:18:09;100485.13;;;-1.96;100.00
40908;BME280;51055;59.436;24.778;2022-12-07T11:20:53;100486.38;;;-2.07;100.00
40908;BME280;51055;59.436;24.778;2022-12-07T11:38:12;100477.53;;;-2.02;100.00
40908;BME280;51055;59.436;24.778;2022-12-07T11:40:47;100472.44;;;-2.05;100.00
40908;BME280;51055;59.436;24.778;2022-12-07T11:43:32;100479.75;;;-2.18;100.00
40908;BME280;51055;59.436;24.778;2022-12-07T11:46:09;100467.63;;;-2.17;100.00
40908;BME280;51055;59.436;24.778;2022-12-07T11:48:50;100467.63;;;-2.17;100.00
40908;BME280;51055;59.436;24.778;2022-12-07T11:51:21;100466.72;;;-2.16;100.00
40908;BME280;51055;59.436;24.778;2022-12-07T11:53:53;100466.88;;;-2.21;100.00
40908;BME280;51055;59.436;24.778;2022-12-07T11:56:26;100457.03;;;-2.11;100.00
40908;BME280;51055;59.436;24.778;2022-12-07T11:59:06;100457.59;;;-2.01;100.00
40908;BME280;51055;59.436;24.778;2022-12-07T12:06:41;100447.16;;;-2.00;100.00
40908;BME280;51055;59.436;24.778;2022-12-07T12:09:16;100450.75;;;-2.04;100.00
40908;BME280;51055;59.436;24.778;2022-12-07T12:15:50;100446.19;;;-1.97;100.00
40908;BME280;51055;59.436;24.778;2022-12-07T12:18:20;100436.59;;;-1.95;100.00
40908;BME280;51055;59.436;24.778;2022-12-07T12:20:57;100443.72;;;-2.02;100.00
40908;BME280;51055;59.436;24.778;2022-12-07T12:26:02;100425.50;;;-2.00;100.00
40908;BME280;51055;59.436;24.778;2022-12-07T12:28:38;100423.25;;;-2.11;100.00
40908;BME280;51055;59.436;24.778;2022-12-07T12:31:29;100426.09;;;-2.19;100.00
40908;BME280;51055;59.436;24.778;2022-12-07T12:34:01;100419.78;;;-2.10;100.00
40908;BME280;51055;59.436;24.778;2022-12-07T12:54:23;100396.19;;;-2.04;100.00
40908;BME280;51055;59.436;24.778;2022-12-07T12:59:30;100404.75;;;-2.02;100.00
40908;BME280;51055;59.436;24.778;2022-12-07T13:15:53;100394.13;;;-2.21;100.00
40908;BME280;51055;59.436;24.778;2022-12-07T13:28:47;100382.00;;;-2.20;100.00
40908;BME280;51055;59.436;24.778;2022-12-07T13:31:34;100381.25;;;-2.24;100.00
40908;BME280;51055;59.436;24.778;2022-12-07T13:34:04;100364.59;;;-2.18;100.00
40908;BME280;51055;59.436;24.778;2022-12-07T13:36:39;100372.06;;;-2.09;100.00
40908;BME280;51055;59.436;24.778;2022-12-07T13:41:44;100378.75;;;-2.27;100.00
40908;BME280;51055;59.436;24.778;2022-12-07T13:44:14;100369.84;;;-2.20;100.00
40908;BME280;51055;59.436;24.778;2022-12-07T13:49:39;100366.72;;;-2.29;100.00
40908;BME280;51055;59.436;24.778;2022-12-07T13:52:30;100360.56;;;-2.27;100.00
40908;BME280;51055;59.436;24.778;2022-12-07T13:55:14;100357.47;;;-2.38;100.00
40908;BME280;51055;59.436;24.778;2022-12-07T13:57:42;100363.41;;;-2.34;100.00
40908;BME280;51055;59.436;24.778;2022-12-07T14:00:17;100356.59;;;-2.38;100.00
40908;BME280;51055;59.436;24.778;2022-12-07T14:03:01;100357.91;;;-2.25;100.00
40908;BME280;51055;59.436;24.778;2022-12-07T14:05:33;100358.22;;;-2.34;100.00
40908;BME280;51055;59.436;24.778;2022-12-07T14:13:31;100347.16;;;-2.41;100.00
40908;BME280;51055;59.436;24.778;2022-12-07T14:18:54;100339.34;;;-2.39;100.00
40908;BME280;51055;59.436;24.778;2022-12-07T14:21:25;100344.22;;;-2.30;100.00
40908;BME280;51055;59.436;24.778;2022-12-07T14:24:15;100332.31;;;-2.36;100.00
40908;BME280;51055;59.436;24.778;2022-12-07T14:26:48;100341.28;;;-2.46;100.00
40908;BME280;51055;59.436;24.778;2022-12-07T14:29:32;100328.13;;;-2.41;100.00
40908;BME280;51055;59.436;24.778;2022-12-07T14:32:21;100330.59;;;-2.37;100.00
40908;BME280;51055;59.436;24.778;2022-12-07T14:35:12;100329.34;;;-2.51;100.00
40908;BME280;51055;59.436;24.778;2022-12-07T14:37:43;100332.56;;;-2.45;100.00
40908;BME280;51055;59.436;24.778;2022-12-07T14:40:14;100330.94;;;-2.47;100.00
40908;BME280;51055;59.436;24.778;2022-12-07T14:42:42;100326.50;;;-2.44;100.00
40908;BME280;51055;59.436;24.778;2022-12-07T14:45:22;100330.25;;;-2.52;100.00
40908;BME280;51055;59.436;24.778;2022-12-07T14:47:50;100325.09;;;-2.54;100.00
40908;BME280;51055;59.436;24.778;2022-12-07T14:50:47;100322.81;;;-2.37;100.00
40908;BME280;51055;59.436;24.778;2022-12-07T14:53:41;100305.81;;;-2.47;100.00
40908;BME280;51055;59.436;24.778;2022-12-07T14:56:10;100310.91;;;-2.44;100.00
40908;BME280;51055;59.436;24.778;2022-12-07T14:58:40;100313.53;;;-2.45;100.00
40908;BME280;51055;59.436;24.778;2022-12-07T15:01:08;100315.31;;;-2.46;100.00
40908;BME280;51055;59.436;24.778;2022-12-07T15:03:35;100314.56;;;-2.49;100.00
40908;BME280;51055;59.436;24.778;2022-12-07T15:06:06;100310.94;;;-2.45;100.00
40908;BME280;51055;59.436;24.778;2022-12-07T15:08:34;100304.97;;;-2.47;100.00
40908;BME280;51055;59.436;24.778;2022-12-07T15:11:01;100305.69;;;-2.42;100.00
40908;BME280;51055;59.436;24.778;2022-12-07T15:13:30;100303.88;;;-2.40;100.00
40908;BME280;51055;59.436;24.778;2022-12-07T15:16:19;100292.59;;;-2.39;100.00
40908;BME280;51055;59.436;24.778;2022-12-07T15:18:47;100291.19;;;-2.49;100.00
40908;BME280;51055;59.436;24.778;2022-12-07T15:21:35;100289.69;;;-2.56;100.00
40908;BME280;51055;59.436;24.778;2022-12-07T15:24:03;100282.50;;;-2.48;100.00
40908;BME280;51055;59.436;24.778;2022-12-07T15:26:30;100278.88;;;-2.43;100.00
40908;BME280;51055;59.436;24.778;2022-12-07T15:28:58;100273.59;;;-2.41;100.00
40908;BME280;51055;59.436;24.778;2022-12-07T15:31:26;100277.19;;;-2.45;100.00
40908;BME280;51055;59.436;24.778;2022-12-07T15:34:14;100273.94;;;-2.52;100.00
40908;BME280;51055;59.436;24.778;2022-12-07T15:36:41;100271.63;;;-2.59;100.00